sensor_id;sensor_type;location;lat;lon;timestamp;P1;durP1;ratioP1;P2;durP2;ratioP2
58152;SDS011;43967;51.634;5.566;2023-05-14T00:00:59;8.25;;;4.35;;
58152;SDS011;43967;51.634;5.566;2023-05-14T00:06:22;7.97;;;3.95;;
58152;SDS011;43967;51.634;5.566;2023-05-14T00:11:44;7.80;;;4.10;;
58152;SDS011;43967;51.634;5.566;2023-05-14T00:17:06;8.47;;;4.13;;
58152;SDS011;43967;51.634;5.566;2023-05-14T00:22:27;7.93;;;4.10;;
58152;SDS011;43967;51.634;5.566;2023-05-14T00:27:48;7.85;;;4.13;;
58152;SDS011;43967;51.634;5.566;2023-05-14T00:33:10;7.13;;;3.80;;
58152;SDS011;43967;51.634;5.566;2023-05-14T00:38:32;7.28;;;3.90;;
58152;SDS011;43967;51.634;5.566;2023-05-14T00:43:53;8.63;;;4.40;;
58152;SDS011;43967;51.634;5.566;2023-05-14T00:49:15;8.73;;;4.50;;
58152;SDS011;43967;51.634;5.566;2023-05-14T00:54:39;7.38;;;3.90;;
58152;SDS011;43967;51.634;5.566;2023-05-14T01:00:01;8.45;;;4.53;;
58152;SDS011;43967;51.634;5.566;2023-05-14T01:05:26;8.13;;;4.67;;
58152;SDS011;43967;51.634;5.566;2023-05-14T01:11:12;7.90;;;4.40;;
58152;SDS011;43967;51.634;5.566;2023-05-14T01:16:39;8.63;;;4.45;;
58152;SDS011;43967;51.634;5.566;2023-05-14T01:22:00;8.75;;;4.30;;
58152;SDS011;43967;51.634;5.566;2023-05-14T01:27:28;8.40;;;4.60;;
58152;SDS011;43967;51.634;5.566;2023-05-14T01:32:56;7.93;;;4.30;;
58152;SDS011;43967;51.634;5.566;2023-05-14T01:38:20;8.80;;;4.13;;
58152;SDS011;43967;51.634;5.566;2023-05-14T01:43:43;8.07;;;4.87;;
58152;SDS011;43967;51.634;5.566;2023-05-14T01:49:05;9.50;;;4.55;;
58152;SDS011;43967;51.634;5.566;2023-05-14T01:54:27;7.20;;;3.90;;
58152;SDS011;43967;51.634;5.566;2023-05-14T01:59:48;8.27;;;4.00;;
58152;SDS011;43967;51.634;5.566;2023-05-14T02:05:10;8.10;;;4.43;;
58152;SDS011;43967;51.634;5.566;2023-05-14T02:10:32;8.70;;;4.45;;
58152;SDS011;43967;51.634;5.566;2023-05-14T02:15:53;8.60;;;4.35;;
58152;SDS011;43967;51.634;5.566;2023-05-14T02:21:16;7.90;;;4.20;;
58152;SDS011;43967;51.634;5.566;2023-05-14T02:26:39;7.18;;;3.92;;
58152;SDS011;43967;51.634;5.566;2023-05-14T02:32:00;8.18;;;4.15;;
58152;SDS011;43967;51.634;5.566;2023-05-14T02:37:21;9.20;;;4.23;;
58152;SDS011;43967;51.634;5.566;2023-05-14T02:42:43;8.65;;;4.25;;
58152;SDS011;43967;51.634;5.566;2023-05-14T02:48:05;8.25;;;4.15;;
58152;SDS011;43967;51.634;5.566;2023-05-14T02:53:26;7.93;;;4.40;;
58152;SDS011;43967;51.634;5.566;2023-05-14T02:58:48;8.93;;;4.37;;
58152;SDS011;43967;51.634;5.566;2023-05-14T03:04:09;7.68;;;4.43;;
58152;SDS011;43967;51.634;5.566;2023-05-14T03:09:30;8.45;;;5.03;;
58152;SDS011;43967;51.634;5.566;2023-05-14T03:14:51;8.40;;;4.77;;
58152;SDS011;43967;51.634;5.566;2023-05-14T03:20:13;8.88;;;4.75;;
58152;SDS011;43967;51.634;5.566;2023-05-14T03:25:34;9.23;;;4.80;;
58152;SDS011;43967;51.634;5.566;2023-05-14T03:30:57;8.43;;;4.40;;
58152;SDS011;43967;51.634;5.566;2023-05-14T03:36:18;8.10;;;4.70;;
58152;SDS011;43967;51.634;5.566;2023-05-14T03:41:40;7.97;;;4.75;;
58152;SDS011;43967;51.634;5.566;2023-05-14T03:47:01;7.90;;;4.30;;
58152;SDS011;43967;51.634;5.566;2023-05-14T03:52:22;8.70;;;4.87;;
58152;SDS011;43967;51.634;5.566;2023-05-14T03:57:44;8.85;;;4.35;;
58152;SDS011;43967;51.634;5.566;2023-05-14T04:03:06;7.85;;;4.50;;
58152;SDS011;43967;51.634;5.566;2023-05-14T04:08:27;8.70;;;4.53;;
58152;SDS011;43967;51.634;5.566;2023-05-14T04:13:48;8.50;;;5.00;;
58152;SDS011;43967;51.634;5.566;2023-05-14T04:19:10;8.73;;;4.65;;
58152;SDS011;43967;51.634;5.566;2023-05-14T04:24:31;8.37;;;5.00;;
58152;SDS011;43967;51.634;5.566;2023-05-14T04:29:52;7.68;;;4.32;;
58152;SDS011;43967;51.634;5.566;2023-05-14T04:35:14;7.90;;;4.05;;
58152;SDS011;43967;51.634;5.566;2023-05-14T04:40:35;7.67;;;4.67;;
58152;SDS011;43967;51.634;5.566;2023-05-14T04:45:56;8.67;;;5.30;;
58152;SDS011;43967;51.634;5.566;2023-05-14T04:51:18;8.43;;;4.70;;
58152;SDS011;43967;51.634;5.566;2023-05-14T04:56:39;8.38;;;4.63;;
58152;SDS011;43967;51.634;5.566;2023-05-14T05:02:00;8.93;;;4.40;;
58152;SDS011;43967;51.634;5.566;2023-05-14T05:07:21;8.32;;;4.68;;
58152;SDS011;43967;51.634;5.566;2023-05-14T05:12:43;8.20;;;4.68;;
58152;SDS011;43967;51.634;5.566;2023-05-14T05:18:04;7.93;;;4.67;;
58152;SDS011;43967;51.634;5.566;2023-05-14T05:23:25;8.70;;;4.85;;
58152;SDS011;43967;51.634;5.566;2023-05-14T05:28:46;8.93;;;4.82;;
58152;SDS011;43967;51.634;5.566;2023-05-14T05:34:08;9.90;;;5.20;;
58152;SDS011;43967;51.634;5.566;2023-05-14T05:39:29;9.20;;;5.67;;
58152;SDS011;43967;51.634;5.566;2023-05-14T05:44:50;9.23;;;4.93;;
58152;SDS011;43967;51.634;5.566;2023-05-14T05:50:12;8.80;;;4.85;;
58152;SDS011;43967;51.634;5.566;2023-05-14T05:55:33;8.10;;;4.60;;
58152;SDS011;43967;51.634;5.566;2023-05-14T06:00:54;8.95;;;4.50;;
58152;SDS011;43967;51.634;5.566;2023-05-14T06:06:15;8.52;;;4.53;;
58152;SDS011;43967;51.634;5.566;2023-05-14T06:11:37;8.73;;;4.43;;
58152;SDS011;43967;51.634;5.566;2023-05-14T06:16:58;8.95;;;4.50;;
58152;SDS011;43967;51.634;5.566;2023-05-14T06:22:19;9.50;;;4.32;;
58152;SDS011;43967;51.634;5.566;2023-05-14T06:27:41;9.60;;;4.70;;
58152;SDS011;43967;51.634;5.566;2023-05-14T06:33:02;8.30;;;4.57;;
58152;SDS011;43967;51.634;5.566;2023-05-14T06:38:23;9.48;;;4.60;;
58152;SDS011;43967;51.634;5.566;2023-05-14T06:43:45;8.45;;;4.70;;
58152;SDS011;43967;51.634;5.566;2023-05-14T06:49:06;10.50;;;4.43;;
58152;SDS011;43967;51.634;5.566;2023-05-14T06:54:27;9.35;;;4.70;;
58152;SDS011;43967;51.634;5.566;2023-05-14T06:59:49;8.57;;;4.28;;
58152;SDS011;43967;51.634;5.566;2023-05-14T07:05:10;9.83;;;4.00;;
58152;SDS011;43967;51.634;5.566;2023-05-14T07:10:33;7.90;;;3.83;;
58152;SDS011;43967;51.634;5.566;2023-05-14T07:15:54;10.80;;;4.63;;
58152;SDS011;43967;51.634;5.566;2023-05-14T07:21:15;8.80;;;4.67;;
58152;SDS011;43967;51.634;5.566;2023-05-14T07:26:37;11.60;;;5.07;;
58152;SDS011;43967;51.634;5.566;2023-05-14T07:31:58;9.18;;;4.10;;
58152;SDS011;43967;51.634;5.566;2023-05-14T07:37:19;10.15;;;4.97;;
58152;SDS011;43967;51.634;5.566;2023-05-14T07:42:40;9.33;;;4.33;;
58152;SDS011;43967;51.634;5.566;2023-05-14T07:48:02;13.07;;;8.00;;
58152;SDS011;43967;51.634;5.566;2023-05-14T07:53:23;11.80;;;7.20;;
58152;SDS011;43967;51.634;5.566;2023-05-14T07:58:44;14.97;;;8.50;;
58152;SDS011;43967;51.634;5.566;2023-05-14T08:04:06;13.13;;;7.80;;
58152;SDS011;43967;51.634;5.566;2023-05-14T08:09:27;12.77;;;7.50;;
58152;SDS011;43967;51.634;5.566;2023-05-14T08:14:48;12.73;;;7.20;;
58152;SDS011;43967;51.634;5.566;2023-05-14T08:20:10;15.13;;;8.50;;
58152;SDS011;43967;51.634;5.566;2023-05-14T08:25:32;14.38;;;8.80;;
58152;SDS011;43967;51.634;5.566;2023-05-14T08:30:53;12.88;;;8.15;;
58152;SDS011;43967;51.634;5.566;2023-05-14T08:36:14;14.57;;;9.90;;
58152;SDS011;43967;51.634;5.566;2023-05-14T08:41:36;14.25;;;9.52;;
58152;SDS011;43967;51.634;5.566;2023-05-14T08:46:57;15.27;;;8.05;;
58152;SDS011;43967;51.634;5.566;2023-05-14T08:52:19;13.93;;;6.80;;
58152;SDS011;43967;51.634;5.566;2023-05-14T08:57:41;12.27;;;7.35;;
58152;SDS011;43967;51.634;5.566;2023-05-14T09:03:03;14.95;;;8.13;;
58152;SDS011;43967;51.634;5.566;2023-05-14T09:08:26;11.60;;;6.57;;
58152;SDS011;43967;51.634;5.566;2023-05-14T09:13:47;13.07;;;8.27;;
58152;SDS011;43967;51.634;5.566;2023-05-14T09:19:08;11.63;;;6.85;;
58152;SDS011;43967;51.634;5.566;2023-05-14T09:24:30;13.85;;;6.78;;
58152;SDS011;43967;51.634;5.566;2023-05-14T09:29:51;11.63;;;6.47;;
58152;SDS011;43967;51.634;5.566;2023-05-14T09:35:13;12.07;;;6.68;;
58152;SDS011;43967;51.634;5.566;2023-05-14T09:40:34;13.65;;;7.40;;
58152;SDS011;43967;51.634;5.566;2023-05-14T09:45:56;10.53;;;6.53;;
58152;SDS011;43967;51.634;5.566;2023-05-14T09:51:17;14.85;;;6.30;;
58152;SDS011;43967;51.634;5.566;2023-05-14T09:56:42;11.45;;;6.93;;
58152;SDS011;43967;51.634;5.566;2023-05-14T10:02:03;12.80;;;6.63;;
58152;SDS011;43967;51.634;5.566;2023-05-14T10:07:30;11.90;;;6.70;;
58152;SDS011;43967;51.634;5.566;2023-05-14T10:12:57;12.27;;;6.70;;
58152;SDS011;43967;51.634;5.566;2023-05-14T10:18:22;12.25;;;6.80;;
58152;SDS011;43967;51.634;5.566;2023-05-14T10:23:44;12.97;;;6.70;;
58152;SDS011;43967;51.634;5.566;2023-05-14T10:29:11;12.23;;;6.47;;
58152;SDS011;43967;51.634;5.566;2023-05-14T10:34:42;13.10;;;6.90;;
58152;SDS011;43967;51.634;5.566;2023-05-14T10:40:03;13.30;;;6.63;;
58152;SDS011;43967;51.634;5.566;2023-05-14T10:45:25;13.38;;;6.93;;
58152;SDS011;43967;51.634;5.566;2023-05-14T10:50:47;13.88;;;6.80;;
58152;SDS011;43967;51.634;5.566;2023-05-14T10:56:11;11.43;;;6.40;;
58152;SDS011;43967;51.634;5.566;2023-05-14T11:01:33;13.07;;;7.30;;
58152;SDS011;43967;51.634;5.566;2023-05-14T11:06:54;11.75;;;6.50;;
58152;SDS011;43967;51.634;5.566;2023-05-14T11:12:16;11.45;;;6.47;;
58152;SDS011;43967;51.634;5.566;2023-05-14T11:17:39;13.70;;;5.60;;
58152;SDS011;43967;51.634;5.566;2023-05-14T11:23:01;11.88;;;6.40;;
58152;SDS011;43967;51.634;5.566;2023-05-14T11:28:22;12.35;;;5.45;;
58152;SDS011;43967;51.634;5.566;2023-05-14T11:33:45;11.37;;;6.00;;
58152;SDS011;43967;51.634;5.566;2023-05-14T11:39:06;12.60;;;5.45;;
58152;SDS011;43967;51.634;5.566;2023-05-14T11:44:27;9.73;;;5.70;;
58152;SDS011;43967;51.634;5.566;2023-05-14T11:49:49;9.73;;;5.90;;
58152;SDS011;43967;51.634;5.566;2023-05-14T11:55:10;12.50;;;6.10;;
58152;SDS011;43967;51.634;5.566;2023-05-14T12:00:32;10.45;;;5.65;;
58152;SDS011;43967;51.634;5.566;2023-05-14T12:05:57;9.38;;;5.15;;
58152;SDS011;43967;51.634;5.566;2023-05-14T12:11:19;11.20;;;5.63;;
58152;SDS011;43967;51.634;5.566;2023-05-14T12:16:41;10.27;;;5.03;;
58152;SDS011;43967;51.634;5.566;2023-05-14T12:22:03;11.65;;;5.63;;
58152;SDS011;43967;51.634;5.566;2023-05-14T12:27:25;11.77;;;5.63;;
58152;SDS011;43967;51.634;5.566;2023-05-14T12:32:48;10.35;;;4.82;;
58152;SDS011;43967;51.634;5.566;2023-05-14T12:38:09;10.35;;;4.72;;
58152;SDS011;43967;51.634;5.566;2023-05-14T12:43:30;8.90;;;4.87;;
58152;SDS011;43967;51.634;5.566;2023-05-14T12:48:52;10.17;;;4.83;;
58152;SDS011;43967;51.634;5.566;2023-05-14T12:54:14;9.45;;;4.93;;
58152;SDS011;43967;51.634;5.566;2023-05-14T12:59:35;9.88;;;5.10;;
58152;SDS011;43967;51.634;5.566;2023-05-14T13:04:56;10.00;;;4.93;;
58152;SDS011;43967;51.634;5.566;2023-05-14T13:10:17;10.85;;;4.60;;
58152;SDS011;43967;51.634;5.566;2023-05-14T13:15:39;13.20;;;4.82;;
58152;SDS011;43967;51.634;5.566;2023-05-14T13:21:00;10.67;;;5.13;;
58152;SDS011;43967;51.634;5.566;2023-05-14T13:26:21;9.38;;;4.55;;
58152;SDS011;43967;51.634;5.566;2023-05-14T13:31:42;9.02;;;5.03;;
58152;SDS011;43967;51.634;5.566;2023-05-14T13:37:04;10.80;;;5.40;;
58152;SDS011;43967;51.634;5.566;2023-05-14T13:42:25;9.00;;;5.00;;
58152;SDS011;43967;51.634;5.566;2023-05-14T13:47:46;9.95;;;4.72;;
58152;SDS011;43967;51.634;5.566;2023-05-14T13:53:07;8.85;;;4.35;;
58152;SDS011;43967;51.634;5.566;2023-05-14T13:58:29;10.60;;;4.47;;
58152;SDS011;43967;51.634;5.566;2023-05-14T14:03:50;10.82;;;4.60;;
58152;SDS011;43967;51.634;5.566;2023-05-14T14:09:11;9.45;;;4.97;;
58152;SDS011;43967;51.634;5.566;2023-05-14T14:14:32;9.17;;;4.73;;
58152;SDS011;43967;51.634;5.566;2023-05-14T14:19:54;11.68;;;5.18;;
58152;SDS011;43967;51.634;5.566;2023-05-14T14:25:15;8.32;;;4.63;;
58152;SDS011;43967;51.634;5.566;2023-05-14T14:30:36;8.80;;;4.00;;
58152;SDS011;43967;51.634;5.566;2023-05-14T14:35:57;8.10;;;4.37;;
58152;SDS011;43967;51.634;5.566;2023-05-14T14:41:19;8.90;;;4.20;;
58152;SDS011;43967;51.634;5.566;2023-05-14T14:46:40;9.02;;;4.63;;
58152;SDS011;43967;51.634;5.566;2023-05-14T14:52:01;8.40;;;4.00;;
58152;SDS011;43967;51.634;5.566;2023-05-14T14:57:22;10.18;;;4.32;;
58152;SDS011;43967;51.634;5.566;2023-05-14T15:02:44;7.18;;;3.85;;
58152;SDS011;43967;51.634;5.566;2023-05-14T15:08:05;7.90;;;4.17;;
58152;SDS011;43967;51.634;5.566;2023-05-14T15:13:26;7.88;;;4.15;;
58152;SDS011;43967;51.634;5.566;2023-05-14T15:18:48;9.48;;;4.57;;
58152;SDS011;43967;51.634;5.566;2023-05-14T15:24:12;10.17;;;4.70;;
58152;SDS011;43967;51.634;5.566;2023-05-14T15:29:33;9.03;;;4.40;;
58152;SDS011;43967;51.634;5.566;2023-05-14T15:34:54;7.45;;;4.55;;
58152;SDS011;43967;51.634;5.566;2023-05-14T15:40:17;8.73;;;4.70;;
58152;SDS011;43967;51.634;5.566;2023-05-14T15:45:38;8.63;;;4.40;;
58152;SDS011;43967;51.634;5.566;2023-05-14T15:51:00;8.32;;;4.38;;
58152;SDS011;43967;51.634;5.566;2023-05-14T15:56:21;9.55;;;4.70;;
58152;SDS011;43967;51.634;5.566;2023-05-14T16:01:42;8.80;;;4.50;;
58152;SDS011;43967;51.634;5.566;2023-05-14T16:07:04;9.05;;;4.70;;
58152;SDS011;43967;51.634;5.566;2023-05-14T16:12:26;8.25;;;4.47;;
58152;SDS011;43967;51.634;5.566;2023-05-14T16:17:48;10.17;;;4.17;;
58152;SDS011;43967;51.634;5.566;2023-05-14T16:23:09;9.27;;;4.50;;
58152;SDS011;43967;51.634;5.566;2023-05-14T16:28:30;7.95;;;4.82;;
58152;SDS011;43967;51.634;5.566;2023-05-14T16:33:52;8.13;;;4.18;;
58152;SDS011;43967;51.634;5.566;2023-05-14T16:39:13;7.90;;;4.07;;
58152;SDS011;43967;51.634;5.566;2023-05-14T16:44:34;7.90;;;4.78;;
58152;SDS011;43967;51.634;5.566;2023-05-14T16:49:55;8.05;;;4.60;;
58152;SDS011;43967;51.634;5.566;2023-05-14T16:55:17;9.03;;;4.63;;
58152;SDS011;43967;51.634;5.566;2023-05-14T17:00:38;8.43;;;4.50;;
58152;SDS011;43967;51.634;5.566;2023-05-14T17:05:59;7.68;;;4.13;;
58152;SDS011;43967;51.634;5.566;2023-05-14T17:11:21;7.97;;;4.43;;
58152;SDS011;43967;51.634;5.566;2023-05-14T17:16:42;7.93;;;4.83;;
58152;SDS011;43967;51.634;5.566;2023-05-14T17:22:03;7.43;;;4.28;;
58152;SDS011;43967;51.634;5.566;2023-05-14T17:27:24;7.95;;;4.65;;
58152;SDS011;43967;51.634;5.566;2023-05-14T17:32:46;8.00;;;4.30;;
58152;SDS011;43967;51.634;5.566;2023-05-14T17:38:07;9.40;;;4.82;;
58152;SDS011;43967;51.634;5.566;2023-05-14T17:43:28;7.70;;;4.57;;
58152;SDS011;43967;51.634;5.566;2023-05-14T17:48:49;7.60;;;4.20;;
58152;SDS011;43967;51.634;5.566;2023-05-14T17:54:11;7.97;;;4.53;;
58152;SDS011;43967;51.634;5.566;2023-05-14T17:59:32;7.70;;;4.07;;
58152;SDS011;43967;51.634;5.566;2023-05-14T18:04:53;8.03;;;4.60;;
58152;SDS011;43967;51.634;5.566;2023-05-14T18:10:14;7.67;;;3.90;;
58152;SDS011;43967;51.634;5.566;2023-05-14T18:15:36;7.63;;;4.78;;
58152;SDS011;43967;51.634;5.566;2023-05-14T18:20:57;7.53;;;4.32;;
58152;SDS011;43967;51.634;5.566;2023-05-14T18:26:19;8.80;;;4.70;;
58152;SDS011;43967;51.634;5.566;2023-05-14T18:31:40;7.80;;;4.50;;
58152;SDS011;43967;51.634;5.566;2023-05-14T18:37:01;8.52;;;4.15;;
58152;SDS011;43967;51.634;5.566;2023-05-14T18:42:23;7.60;;;4.50;;
58152;SDS011;43967;51.634;5.566;2023-05-14T18:47:44;8.20;;;4.45;;
58152;SDS011;43967;51.634;5.566;2023-05-14T18:53:05;7.53;;;4.38;;
58152;SDS011;43967;51.634;5.566;2023-05-14T18:58:26;8.07;;;4.33;;
58152;SDS011;43967;51.634;5.566;2023-05-14T19:03:48;8.73;;;4.60;;
58152;SDS011;43967;51.634;5.566;2023-05-14T19:09:09;11.02;;;4.70;;
58152;SDS011;43967;51.634;5.566;2023-05-14T19:14:30;7.75;;;3.92;;
58152;SDS011;43967;51.634;5.566;2023-05-14T19:19:51;8.57;;;4.60;;
58152;SDS011;43967;51.634;5.566;2023-05-14T19:25:13;8.73;;;4.72;;
58152;SDS011;43967;51.634;5.566;2023-05-14T19:30:34;8.02;;;4.20;;
58152;SDS011;43967;51.634;5.566;2023-05-14T19:35:55;7.43;;;4.13;;
58152;SDS011;43967;51.634;5.566;2023-05-14T19:41:17;7.88;;;4.07;;
58152;SDS011;43967;51.634;5.566;2023-05-14T19:46:38;7.38;;;4.25;;
58152;SDS011;43967;51.634;5.566;2023-05-14T19:51:59;8.00;;;4.00;;
58152;SDS011;43967;51.634;5.566;2023-05-14T19:57:21;7.80;;;4.50;;
58152;SDS011;43967;51.634;5.566;2023-05-14T20:02:42;7.68;;;4.00;;
58152;SDS011;43967;51.634;5.566;2023-05-14T20:08:03;7.97;;;4.65;;
58152;SDS011;43967;51.634;5.566;2023-05-14T20:13:25;8.13;;;4.20;;
58152;SDS011;43967;51.634;5.566;2023-05-14T20:18:46;7.93;;;4.50;;
58152;SDS011;43967;51.634;5.566;2023-05-14T20:24:07;9.82;;;4.60;;
58152;SDS011;43967;51.634;5.566;2023-05-14T20:29:28;8.87;;;5.07;;
58152;SDS011;43967;51.634;5.566;2023-05-14T20:34:50;7.90;;;4.72;;
58152;SDS011;43967;51.634;5.566;2023-05-14T20:40:11;10.30;;;4.82;;
58152;SDS011;43967;51.634;5.566;2023-05-14T20:45:32;8.47;;;4.17;;
58152;SDS011;43967;51.634;5.566;2023-05-14T20:50:54;8.67;;;4.60;;
58152;SDS011;43967;51.634;5.566;2023-05-14T20:56:15;8.98;;;4.30;;
58152;SDS011;43967;51.634;5.566;2023-05-14T21:01:36;8.88;;;4.78;;
58152;SDS011;43967;51.634;5.566;2023-05-14T21:06:57;8.67;;;4.17;;
58152;SDS011;43967;51.634;5.566;2023-05-14T21:12:19;8.90;;;4.25;;
58152;SDS011;43967;51.634;5.566;2023-05-14T21:17:40;8.07;;;4.25;;
58152;SDS011;43967;51.634;5.566;2023-05-14T21:23:01;8.43;;;4.90;;
58152;SDS011;43967;51.634;5.566;2023-05-14T21:28:23;7.93;;;4.00;;
58152;SDS011;43967;51.634;5.566;2023-05-14T21:33:44;7.65;;;4.30;;
58152;SDS011;43967;51.634;5.566;2023-05-14T21:39:05;8.20;;;4.37;;
58152;SDS011;43967;51.634;5.566;2023-05-14T21:44:26;8.33;;;3.80;;
58152;SDS011;43967;51.634;5.566;2023-05-14T21:49:48;7.72;;;4.43;;
58152;SDS011;43967;51.634;5.566;2023-05-14T21:55:09;8.52;;;4.20;;
58152;SDS011;43967;51.634;5.566;2023-05-14T22:00:30;8.60;;;4.57;;
58152;SDS011;43967;51.634;5.566;2023-05-14T22:05:53;7.32;;;3.85;;
58152;SDS011;43967;51.634;5.566;2023-05-14T22:11:14;8.15;;;4.32;;
58152;SDS011;43967;51.634;5.566;2023-05-14T22:16:35;8.33;;;4.23;;
58152;SDS011;43967;51.634;5.566;2023-05-14T22:21:57;8.13;;;4.10;;
58152;SDS011;43967;51.634;5.566;2023-05-14T22:27:18;7.88;;;4.18;;
58152;SDS011;43967;51.634;5.566;2023-05-14T22:32:39;8.10;;;4.53;;
58152;SDS011;43967;51.634;5.566;2023-05-14T22:38:00;8.03;;;3.67;;
58152;SDS011;43967;51.634;5.566;2023-05-14T22:43:22;8.98;;;4.20;;
58152;SDS011;43967;51.634;5.566;2023-05-14T22:48:43;8.00;;;3.90;;
58152;SDS011;43967;51.634;5.566;2023-05-14T22:54:04;8.20;;;3.67;;
58152;SDS011;43967;51.634;5.566;2023-05-14T22:59:26;7.43;;;4.15;;
58152;SDS011;43967;51.634;5.566;2023-05-14T23:04:47;9.07;;;4.50;;
58152;SDS011;43967;51.634;5.566;2023-05-14T23:10:08;7.63;;;3.83;;
58152;SDS011;43967;51.634;5.566;2023-05-14T23:15:30;8.32;;;4.35;;
58152;SDS011;43967;51.634;5.566;2023-05-14T23:20:52;8.32;;;4.65;;
58152;SDS011;43967;51.634;5.566;2023-05-14T23:26:13;7.93;;;3.90;;
58152;SDS011;43967;51.634;5.566;2023-05-14T23:31:35;8.47;;;4.57;;
58152;SDS011;43967;51.634;5.566;2023-05-14T23:36:56;7.93;;;4.10;;
58152;SDS011;43967;51.634;5.566;2023-05-14T23:42:17;8.48;;;4.10;;
58152;SDS011;43967;51.634;5.566;2023-05-14T23:47:39;7.77;;;4.50;;
58152;SDS011;43967;51.634;5.566;2023-05-14T23:53:00;8.15;;;4.30;;
58152;SDS011;43967;51.634;5.566;2023-05-14T23:58:22;8.73;;;4.50;;
